2000 SAOMAI (2000245N14157)


On this page: IBTrACS data - Map and Plots - Positions - Intensities - Original source data

Summary

Start Aug 31
End Sep 19
Basin WP
LMI 140 kt
Sources jtwc_wp
tokyo
cma
hko
In WMO? Yes
Previous storm 2000 KRISTY (EP)
Previous in basin 2000 MARI (WP)
Concurrent storms 2000 PRAPIROON (WP)
2000 MARI (WP)
2000 JOHN (EP)
2000 KRISTY (EP)
2000 SAOMAI (WP)
2000 ERNESTO (NA)
2000 WUKONG (WP)
2000 BOPHA (WP)
2000 LANE (EP)
2000 MISSING (NA)
2000 FLORENCE (NA)
2000 SONAMU (WP)
2000 GORDON (NA)
2000 SHANSHAN (WP)
2000 HELENE (NA)
2000 MIRIAM (EP)
Next in basin 2000 WUKONG (WP)
Next storm 2000 ERNESTO (NA)

top of page IBTrACS Data: File Access

top of page HURSAT Data: File Access

Image of storm

top of page Plots:

Map of storm track will not appear if FTP is down
Time series of cyclone Maximum Sustained Wind will not appear if FTP is down
Time series of cyclone Minimum Central Pressure will not appear if FTP is down

top of page Track Data:Position

jtwc_wp tokyo cma hko
Date Lat Lon Lat Lon Lat Lon Lat Lon
2000-08-31 18:00:00 13.5 156.9
2000-09-01 00:00:00 14.2 157.0
2000-09-01 06:00:00 14.8 157.0
2000-09-01 12:00:00 15.5 157.1
2000-09-01 18:00:00 15.9 158.5 15.9 157.2
2000-09-02 00:00:00 16.0 158.0 16.1 157.4
2000-09-02 06:00:00 16.2 157.3 16.3 157.1
2000-09-02 12:00:00 16.1 156.4 16.1 156.3
2000-09-02 18:00:00 16.0 155.6 16.0 155.5 16.0 156.0 15.9 155.7
2000-09-03 00:00:00 15.9 154.9 15.9 154.9 15.4 155.0 15.9 154.9
2000-09-03 06:00:00 15.9 154.2 15.9 154.2 15.8 154.2 15.9 154.2
2000-09-03 12:00:00 15.9 153.5 15.9 153.4 15.9 153.5 15.9 153.5
2000-09-03 18:00:00 16.0 152.6 15.9 152.6 16.0 152.6 15.9 152.7
2000-09-04 00:00:00 16.1 151.6 16.0 151.7 16.0 151.7 16.0 151.8
2000-09-04 06:00:00 16.1 150.7 16.1 150.7 16.1 150.8 16.1 150.9
2000-09-04 12:00:00 16.1 149.8 16.2 149.9 16.2 150.0 16.1 150.0
2000-09-04 18:00:00 16.1 149.0 16.1 149.0 16.0 149.0 16.1 149.1
2000-09-05 00:00:00 16.0 148.2 16.0 148.0 16.1 148.1 16.0 148.2
2000-09-05 06:00:00 15.7 147.7 15.9 148.0 15.9 147.2 15.5 147.9
2000-09-05 12:00:00 15.1 147.6 15.0 148.0 15.0 147.2 14.9 147.7
2000-09-05 18:00:00 14.4 147.7 14.2 148.0 14.3 147.6 14.2 147.7
2000-09-06 00:00:00 13.7 147.8 13.6 148.0 13.6 147.9 13.6 147.9
2000-09-06 06:00:00 13.8 147.5 13.6 147.4 13.8 147.4 13.8 147.6
2000-09-06 12:00:00 14.3 147.3 13.9 147.1 14.2 147.2 14.3 147.3
2000-09-06 18:00:00 15.0 146.9 14.2 146.9 14.8 146.8 15.0 146.8
jtwc_wp tokyo cma hko
2000-09-07 00:00:00 16.0 146.0 15.8 145.7 15.5 146.1 16.0 145.8
2000-09-07 06:00:00 17.0 144.9 16.4 144.7 16.7 144.8 16.7 144.6
2000-09-07 12:00:00 17.5 143.8 16.9 143.5 17.3 143.8 17.3 143.4
2000-09-07 18:00:00 17.9 142.6 17.5 142.0 17.9 142.0 17.9 142.2
2000-09-08 00:00:00 18.3 141.3 18.3 140.9 18.3 141.3 18.4 141.2
2000-09-08 06:00:00 18.9 140.4 19.1 140.4 18.8 140.5 19.0 140.3
2000-09-08 12:00:00 19.5 139.5 19.7 139.7 19.7 139.6 19.7 139.3
2000-09-08 18:00:00 20.3 138.4 20.4 138.4 20.5 138.3 20.3 138.4
2000-09-09 00:00:00 20.9 137.5 21.1 137.4 20.9 137.4 21.0 137.5
2000-09-09 06:00:00 21.6 136.8 21.7 136.8 21.6 136.7 21.7 136.7
2000-09-09 12:00:00 22.4 136.1 22.5 136.1 22.3 136.2 22.4 136.0
2000-09-09 18:00:00 23.2 135.2 23.3 135.2 23.3 135.2 23.2 135.2
2000-09-10 00:00:00 23.8 134.1 23.9 134.1 23.9 134.2 23.8 134.2
2000-09-10 06:00:00 24.1 133.0 24.3 133.0 24.2 133.0 24.1 133.1
2000-09-10 12:00:00 24.2 132.5 24.3 132.4 24.2 132.3 24.2 132.4
2000-09-10 18:00:00 24.4 132.0 24.4 132.0 24.4 131.9 24.5 131.9
2000-09-11 00:00:00 24.7 131.5 24.9 131.5 24.8 131.5 24.9 131.4
2000-09-11 06:00:00 25.2 130.8 25.4 130.8 25.3 130.8 25.2 130.8
2000-09-11 12:00:00 25.5 130.2 25.5 130.4 25.5 130.3 25.5 130.2
2000-09-11 18:00:00 25.8 129.5 25.8 129.5 25.8 129.5 25.7 129.6
2000-09-12 00:00:00 26.0 128.9 26.1 128.9 26.1 128.9 26.0 128.9
2000-09-12 06:00:00 26.3 128.3 26.3 128.2 26.3 128.2 26.3 128.2
2000-09-12 12:00:00 26.6 127.8 26.7 127.8 26.7 127.8 26.7 127.6
2000-09-12 18:00:00 27.0 127.1 27.0 127.0 27.0 126.9 27.0 127.0
jtwc_wp tokyo cma hko
2000-09-13 00:00:00 27.4 126.5 27.4 126.5 27.4 126.4 27.4 126.4
2000-09-13 06:00:00 27.8 125.8 27.8 125.9 27.8 125.8 27.8 125.8
2000-09-13 12:00:00 27.9 125.3 27.9 125.2 27.9 125.2 27.9 125.2
2000-09-13 18:00:00 27.9 124.9 27.9 124.6 28.0 124.7 27.9 124.8
2000-09-14 00:00:00 28.0 124.5 28.0 124.4 28.0 124.5 28.0 124.5
2000-09-14 06:00:00 28.1 124.3 28.2 124.2 28.2 124.2 28.2 124.2
2000-09-14 12:00:00 28.4 124.3 28.4 124.2 28.4 124.2 28.4 124.2
2000-09-14 18:00:00 28.6 124.5 28.6 124.4 28.7 124.5 28.7 124.4
2000-09-15 00:00:00 29.1 125.3 29.1 125.3 29.1 125.2 29.1 125.2
2000-09-15 06:00:00 30.1 126.3 30.1 126.3 30.2 126.3 30.1 126.3
2000-09-15 12:00:00 31.8 127.4 31.6 127.6 31.8 127.5 31.6 127.4
2000-09-15 18:00:00 34.0 128.1 34.0 128.1 34.0 128.0 34.0 128.1
2000-09-16 00:00:00 36.7 128.9 36.7 129.0 36.7 128.8 36.7 128.8
2000-09-16 06:00:00 39.5 129.5 39.5 129.5 39.5 129.4 39.5 129.4
2000-09-16 12:00:00 40.1 130.5 42.7 133.6
2000-09-16 18:00:00 42.0 131.4
2000-09-17 00:00:00 42.7 131.6
2000-09-17 06:00:00 44.7 133.0
2000-09-17 12:00:00 46.5 135.1
2000-09-17 18:00:00 47.0 136.2
2000-09-18 00:00:00 47.5 137.2
2000-09-18 06:00:00 47.5 138.7
2000-09-18 12:00:00 47.6 140.7
2000-09-18 18:00:00 47.5 141.6
jtwc_wp tokyo cma hko
2000-09-19 00:00:00 47.4 142.2

top of pageTrack Data:Intensity

jtwc_wp tokyo cma hko
Date Wind Pres Wind Pres Wind Pres Wind Pres
2000-08-31 18:00:00 1008.
2000-09-01 00:00:00 1008.
2000-09-01 06:00:00 1006.
2000-09-01 12:00:00 1008.
2000-09-01 18:00:00 20. 1004.
2000-09-02 00:00:00 20. 1004.
2000-09-02 06:00:00 20. 1004.
2000-09-02 12:00:00 25. 35. 1000.
2000-09-02 18:00:00 35. 40. 996. 23. 1002. 30. 1002.
2000-09-03 00:00:00 35. 40. 992. 29. 1000. 35. 998.
2000-09-03 06:00:00 45. 45. 990. 39. 995. 40. 996.
2000-09-03 12:00:00 50. 50. 985. 45. 990. 45. 990.
2000-09-03 18:00:00 55. 55. 980. 49. 985. 50. 985.
2000-09-04 00:00:00 65. 60. 980. 58. 980. 55. 980.
2000-09-04 06:00:00 70. 65. 975. 58. 980. 60. 975.
2000-09-04 12:00:00 80. 65. 975. 64. 975. 65. 970.
2000-09-04 18:00:00 90. 65. 975. 64. 975. 70. 965.
2000-09-05 00:00:00 90. 65. 975. 64. 975. 65. 970.
2000-09-05 06:00:00 70. 55. 980. 58. 980. 60. 975.
2000-09-05 12:00:00 60. 50. 985. 58. 980. 55. 980.
2000-09-05 18:00:00 60. 50. 985. 58. 980. 50. 985.
2000-09-06 00:00:00 55. 50. 985. 58. 980. 50. 985.
2000-09-06 06:00:00 55. 50. 985. 58. 980. 50. 985.
2000-09-06 12:00:00 55. 50. 985. 49. 985. 50. 985.
2000-09-06 18:00:00 55. 50. 985. 49. 985. 50. 985.
jtwc_wp tokyo cma hko
2000-09-07 00:00:00 55. 50. 985. 49. 985. 50. 985.
2000-09-07 06:00:00 55. 50. 985. 49. 985. 50. 985.
2000-09-07 12:00:00 55. 50. 985. 49. 985. 55. 980.
2000-09-07 18:00:00 55. 50. 985. 49. 985. 55. 980.
2000-09-08 00:00:00 65. 55. 980. 49. 985. 55. 980.
2000-09-08 06:00:00 75. 55. 980. 49. 985. 55. 980.
2000-09-08 12:00:00 75. 55. 980. 58. 980. 60. 975.
2000-09-08 18:00:00 85. 60. 975. 58. 980. 60. 975.
2000-09-09 00:00:00 90. 70. 965. 64. 975. 65. 970.
2000-09-09 06:00:00 90. 75. 955. 68. 970. 70. 965.
2000-09-09 12:00:00 100. 80. 945. 87. 955. 75. 960.
2000-09-09 18:00:00 120. 90. 935. 97. 940. 80. 950.
2000-09-10 00:00:00 120. 90. 930. 107. 930. 90. 940.
2000-09-10 06:00:00 120. 90. 930. 117. 920. 100. 930.
2000-09-10 12:00:00 140. 95. 925. 117. 920. 110. 920.
2000-09-10 18:00:00 140. 95. 925. 117. 920. 110. 920.
2000-09-11 00:00:00 130. 95. 925. 117. 920. 105. 925.
2000-09-11 06:00:00 125. 90. 930. 107. 930. 105. 925.
2000-09-11 12:00:00 115. 90. 935. 107. 930. 100. 930.
2000-09-11 18:00:00 110. 85. 940. 107. 930. 95. 935.
2000-09-12 00:00:00 110. 85. 940. 97. 940. 90. 940.
2000-09-12 06:00:00 100. 75. 945. 87. 950. 85. 945.
2000-09-12 12:00:00 95. 75. 945. 87. 950. 85. 945.
2000-09-12 18:00:00 90. 75. 950. 87. 950. 85. 945.
jtwc_wp tokyo cma hko
2000-09-13 00:00:00 90. 75. 950. 87. 950. 85. 945.
2000-09-13 06:00:00 90. 70. 960. 87. 950. 85. 945.
2000-09-13 12:00:00 85. 70. 955. 87. 950. 85. 945.
2000-09-13 18:00:00 85. 70. 955. 87. 950. 85. 945.
2000-09-14 00:00:00 90. 70. 955. 87. 950. 85. 945.
2000-09-14 06:00:00 90. 70. 955. 87. 950. 85. 945.
2000-09-14 12:00:00 90. 70. 960. 87. 950. 85. 945.
2000-09-14 18:00:00 85. 70. 960. 78. 960. 80. 950.
2000-09-15 00:00:00 75. 65. 965. 78. 960. 75. 955.
2000-09-15 06:00:00 70. 65. 965. 78. 960. 70. 960.
2000-09-15 12:00:00 65. 60. 970. 68. 970. 65. 965.
2000-09-15 18:00:00 65. 60. 970. 68. 970. 60. 970.
2000-09-16 00:00:00 55. 50. 980. 54. 975. 55. 975.
2000-09-16 06:00:00 45. 982. 49. 980. 50. 980.
2000-09-16 12:00:00 986. 39. 990.
2000-09-16 18:00:00 988.
2000-09-17 00:00:00 990.
2000-09-17 06:00:00 990.
2000-09-17 12:00:00 992.
2000-09-17 18:00:00 994.
2000-09-18 00:00:00 996.
2000-09-18 06:00:00 998.
2000-09-18 12:00:00 1004.
2000-09-18 18:00:00 1008.
jtwc_wp tokyo cma hko
2000-09-19 00:00:00 1012.

top of page Links to source data

Source Source file Format
jtwc_wp bwp222000.txt ATCF
tokyo bst_all.txt:Line=49825:SAOMAI:14 JMA text table
cma CH2000BST.txt:Storm=18:Saomai CMA text table
hko tc-besttrack-data.txt:Line=28158:SAOMAI HKO Text table